sensor_id;sensor_type;location;lat;lon;timestamp;temperature;humidity
72762;SHT30;60886;55.034;73.150;2023-12-07T01:50:36;-28.83;71.34
72762;SHT30;60886;55.034;73.150;2023-12-07T01:53:39;-28.86;70.40
72762;SHT30;60886;55.034;73.150;2023-12-07T01:56:40;-28.89;70.01
72762;SHT30;60886;55.034;73.150;2023-12-07T01:59:43;-28.87;69.83
72762;SHT30;60886;55.034;73.150;2023-12-07T02:02:45;-28.92;69.86
72762;SHT30;60886;55.034;73.150;2023-12-07T02:05:48;-29.00;69.66
72762;SHT30;60886;55.034;73.150;2023-12-07T02:08:50;-28.96;69.34
72762;SHT30;60886;55.034;73.150;2023-12-07T02:11:51;-29.06;69.23
72762;SHT30;60886;55.034;73.150;2023-12-07T02:14:53;-29.07;69.13
72762;SHT30;60886;55.034;73.150;2023-12-07T02:18:22;-29.13;69.03
72762;SHT30;60886;55.034;73.150;2023-12-07T02:21:34;-29.26;69.02
72762;SHT30;60886;55.034;73.150;2023-12-07T02:24:46;-29.20;69.10
72762;SHT30;60886;55.034;73.150;2023-12-07T02:27:49;-29.20;69.05
72762;SHT30;60886;55.034;73.150;2023-12-07T02:30:50;-29.23;69.21
72762;SHT30;60886;55.034;73.150;2023-12-07T02:33:52;-29.18;69.29
72762;SHT30;60886;55.034;73.150;2023-12-07T02:36:55;-29.35;69.28
72762;SHT30;60886;55.034;73.150;2023-12-07T02:39:58;-29.45;68.92
72762;SHT30;60886;55.034;73.150;2023-12-07T02:43:00;-29.55;68.81
72762;SHT30;60886;55.034;73.150;2023-12-07T02:46:04;-29.41;69.01
72762;SHT30;60886;55.034;73.150;2023-12-07T02:49:05;-29.45;68.96
72762;SHT30;60886;55.034;73.150;2023-12-07T02:52:11;-29.41;68.67
72762;SHT30;60886;55.034;73.150;2023-12-07T02:55:12;-29.49;68.49
72762;SHT30;60886;55.034;73.150;2023-12-07T02:58:14;-29.57;68.34
72762;SHT30;60886;55.034;73.150;2023-12-07T03:05:50;-29.65;69.35
72762;SHT30;60886;55.034;73.150;2023-12-07T03:08:54;-29.75;68.88
72762;SHT30;60886;55.034;73.150;2023-12-07T03:11:55;-29.83;68.78
72762;SHT30;60886;55.034;73.150;2023-12-07T03:14:57;-29.83;68.87
72762;SHT30;60886;55.034;73.150;2023-12-07T03:17:58;-29.81;69.04
72762;SHT30;60886;55.034;73.150;2023-12-07T03:21:02;-29.83;69.10
72762;SHT30;60886;55.034;73.150;2023-12-07T03:24:04;-29.94;68.91
72762;SHT30;60886;55.034;73.150;2023-12-07T03:27:08;-30.03;68.75
72762;SHT30;60886;55.034;73.150;2023-12-07T03:30:10;-30.04;68.97
72762;SHT30;60886;55.034;73.150;2023-12-07T03:33:11;-30.12;68.93
72762;SHT30;60886;55.034;73.150;2023-12-07T03:36:13;-30.09;69.00
72762;SHT30;60886;55.034;73.150;2023-12-07T03:39:16;-30.14;68.99
72762;SHT30;60886;55.034;73.150;2023-12-07T03:42:19;-30.07;68.95
72762;SHT30;60886;55.034;73.150;2023-12-07T03:45:21;-30.14;68.72
72762;SHT30;60886;55.034;73.150;2023-12-07T03:48:22;-30.18;68.63
72762;SHT30;60886;55.034;73.150;2023-12-07T03:51:24;-30.07;68.74
72762;SHT30;60886;55.034;73.150;2023-12-07T03:54:25;-30.06;68.59
72762;SHT30;60886;55.034;73.150;2023-12-07T03:57:27;-29.97;68.47
72762;SHT30;60886;55.034;73.150;2023-12-07T04:00:29;-30.04;68.21
72762;SHT30;60886;55.034;73.150;2023-12-07T04:03:31;-30.12;67.89
72762;SHT30;60886;55.034;73.150;2023-12-07T04:06:32;-30.07;68.19
72762;SHT30;60886;55.034;73.150;2023-12-07T04:09:34;-30.16;68.15
72762;SHT30;60886;55.034;73.150;2023-12-07T04:12:36;-30.02;68.30
72762;SHT30;60886;55.034;73.150;2023-12-07T04:15:38;-30.07;68.23
72762;SHT30;60886;55.034;73.150;2023-12-07T04:18:40;-30.10;68.05
72762;SHT30;60886;55.034;73.150;2023-12-07T04:21:41;-30.06;67.93
72762;SHT30;60886;55.034;73.150;2023-12-07T04:24:43;-30.03;67.80
72762;SHT30;60886;55.034;73.150;2023-12-07T04:27:44;-29.96;67.61
72762;SHT30;60886;55.034;73.150;2023-12-07T04:30:46;-29.99;67.35
72762;SHT30;60886;55.034;73.150;2023-12-07T04:33:47;-29.96;67.44
72762;SHT30;60886;55.034;73.150;2023-12-07T04:36:49;-29.99;67.49
72762;SHT30;60886;55.034;73.150;2023-12-07T04:39:51;-29.94;67.20
72762;SHT30;60886;55.034;73.150;2023-12-07T04:42:52;-30.02;67.05
72762;SHT30;60886;55.034;73.150;2023-12-07T04:45:54;-29.86;67.43
72762;SHT30;60886;55.034;73.150;2023-12-07T04:48:56;-29.88;67.49
72762;SHT30;60886;55.034;73.150;2023-12-07T04:51:57;-29.75;67.11
72762;SHT30;60886;55.034;73.150;2023-12-07T04:54:59;-29.81;67.11
72762;SHT30;60886;55.034;73.150;2023-12-07T04:58:01;-29.86;66.73
72762;SHT30;60886;55.034;73.150;2023-12-07T05:01:03;-29.78;66.96
72762;SHT30;60886;55.034;73.150;2023-12-07T05:04:05;-29.83;66.64
72762;SHT30;60886;55.034;73.150;2023-12-07T05:07:08;-29.65;66.69
72762;SHT30;60886;55.034;73.150;2023-12-07T05:10:09;-29.76;66.52
72762;SHT30;60886;55.034;73.150;2023-12-07T05:13:11;-29.72;66.18
72762;SHT30;60886;55.034;73.150;2023-12-07T05:16:13;-29.81;65.99
72762;SHT30;60886;55.034;73.150;2023-12-07T05:19:15;-29.73;66.12
72762;SHT30;60886;55.034;73.150;2023-12-07T05:22:16;-29.81;65.87
72762;SHT30;60886;55.034;73.150;2023-12-07T05:25:19;-29.71;66.27
72762;SHT30;60886;55.034;73.150;2023-12-07T05:28:20;-29.73;66.04
72762;SHT30;60886;55.034;73.150;2023-12-07T05:31:22;-29.68;65.90
72762;SHT30;60886;55.034;73.150;2023-12-07T05:34:23;-29.81;65.66
72762;SHT30;60886;55.034;73.150;2023-12-07T05:37:25;-29.81;65.73
72762;SHT30;60886;55.034;73.150;2023-12-07T05:40:27;-29.83;65.80
72762;SHT30;60886;55.034;73.150;2023-12-07T05:43:29;-29.75;66.00
72762;SHT30;60886;55.034;73.150;2023-12-07T05:46:31;-29.75;66.12
72762;SHT30;60886;55.034;73.150;2023-12-07T05:49:32;-29.85;65.47
72762;SHT30;60886;55.034;73.150;2023-12-07T05:52:34;-29.78;65.48
72762;SHT30;60886;55.034;73.150;2023-12-07T05:55:38;-29.78;65.59
72762;SHT30;60886;55.034;73.150;2023-12-07T05:58:40;-29.72;65.53
72762;SHT30;60886;55.034;73.150;2023-12-07T06:01:42;-29.71;65.70
72762;SHT30;60886;55.034;73.150;2023-12-07T06:04:44;-29.66;65.27
72762;SHT30;60886;55.034;73.150;2023-12-07T06:07:45;-29.63;65.31
72762;SHT30;60886;55.034;73.150;2023-12-07T06:10:49;-29.78;65.00
72762;SHT30;60886;55.034;73.150;2023-12-07T06:13:50;-29.93;64.62
72762;SHT30;60886;55.034;73.150;2023-12-07T06:16:52;-29.99;64.57
72762;SHT30;60886;55.034;73.150;2023-12-07T06:19:53;-29.90;64.60
72762;SHT30;60886;55.034;73.150;2023-12-07T06:22:55;-29.88;64.91
72762;SHT30;60886;55.034;73.150;2023-12-07T06:25:57;-29.93;64.81
72762;SHT30;60886;55.034;73.150;2023-12-07T06:28:59;-29.99;64.60
72762;SHT30;60886;55.034;73.150;2023-12-07T06:32:07;-29.96;64.73
72762;SHT30;60886;55.034;73.150;2023-12-07T06:35:11;-29.90;64.62
72762;SHT30;60886;55.034;73.150;2023-12-07T06:38:14;-29.78;64.96
72762;SHT30;60886;55.034;73.150;2023-12-07T06:41:16;-29.75;64.81
72762;SHT30;60886;55.034;73.150;2023-12-07T06:44:17;-29.85;64.68
72762;SHT30;60886;55.034;73.150;2023-12-07T06:47:19;-29.76;64.52
72762;SHT30;60886;55.034;73.150;2023-12-07T06:50:21;-29.76;64.40
72762;SHT30;60886;55.034;73.150;2023-12-07T06:53:22;-29.79;64.30
72762;SHT30;60886;55.034;73.150;2023-12-07T06:56:24;-29.81;64.18
72762;SHT30;60886;55.034;73.150;2023-12-07T06:59:26;-29.75;64.22
72762;SHT30;60886;55.034;73.150;2023-12-07T07:02:27;-29.82;64.14
72762;SHT30;60886;55.034;73.150;2023-12-07T07:05:29;-29.69;64.21
72762;SHT30;60886;55.034;73.150;2023-12-07T07:08:30;-29.59;64.36
72762;SHT30;60886;55.034;73.150;2023-12-07T07:11:32;-29.65;64.05
72762;SHT30;60886;55.034;73.150;2023-12-07T07:14:35;-29.59;63.82
72762;SHT30;60886;55.034;73.150;2023-12-07T07:17:37;-29.69;63.61
72762;SHT30;60886;55.034;73.150;2023-12-07T07:20:38;-29.75;63.73
72762;SHT30;60886;55.034;73.150;2023-12-07T07:23:40;-29.82;63.75
72762;SHT30;60886;55.034;73.150;2023-12-07T07:26:42;-29.78;64.02
72762;SHT30;60886;55.034;73.150;2023-12-07T07:29:43;-29.82;64.05
72762;SHT30;60886;55.034;73.150;2023-12-07T07:32:45;-29.78;64.12
72762;SHT30;60886;55.034;73.150;2023-12-07T07:35:47;-29.90;63.86
72762;SHT30;60886;55.034;73.150;2023-12-07T07:38:48;-29.78;64.15
72762;SHT30;60886;55.034;73.150;2023-12-07T07:41:50;-29.69;64.27
72762;SHT30;60886;55.034;73.150;2023-12-07T07:44:51;-29.72;64.06
72762;SHT30;60886;55.034;73.150;2023-12-07T07:47:53;-29.62;64.09
72762;SHT30;60886;55.034;73.150;2023-12-07T07:50:55;-29.66;63.92
72762;SHT30;60886;55.034;73.150;2023-12-07T07:53:56;-29.52;63.99
72762;SHT30;60886;55.034;73.150;2023-12-07T07:57:07;-29.57;63.82
72762;SHT30;60886;55.034;73.150;2023-12-07T08:00:09;-29.39;63.78
72762;SHT30;60886;55.034;73.150;2023-12-07T08:03:11;-29.37;63.40
72762;SHT30;60886;55.034;73.150;2023-12-07T08:06:12;-29.45;63.07
72762;SHT30;60886;55.034;73.150;2023-12-07T08:09:14;-29.44;63.01
72762;SHT30;60886;55.034;73.150;2023-12-07T08:12:15;-29.44;63.02
72762;SHT30;60886;55.034;73.150;2023-12-07T08:15:17;-29.38;62.91
72762;SHT30;60886;55.034;73.150;2023-12-07T08:18:18;-29.41;62.79
72762;SHT30;60886;55.034;73.150;2023-12-07T08:21:21;-29.47;62.71
72762;SHT30;60886;55.034;73.150;2023-12-07T08:24:23;-29.41;62.76
72762;SHT30;60886;55.034;73.150;2023-12-07T08:27:24;-29.52;62.84
72762;SHT30;60886;55.034;73.150;2023-12-07T08:30:26;-29.48;62.89
72762;SHT30;60886;55.034;73.150;2023-12-07T08:33:28;-29.38;62.89
72762;SHT30;60886;55.034;73.150;2023-12-07T08:36:30;-29.38;62.73
72762;SHT30;60886;55.034;73.150;2023-12-07T08:39:31;-29.42;62.44
72762;SHT30;60886;55.034;73.150;2023-12-07T08:42:32;-29.33;62.84
72762;SHT30;60886;55.034;73.150;2023-12-07T08:45:34;-29.47;62.59
72762;SHT30;60886;55.034;73.150;2023-12-07T08:48:39;-29.49;62.69
72762;SHT30;60886;55.034;73.150;2023-12-07T08:51:40;-29.42;62.81
72762;SHT30;60886;55.034;73.150;2023-12-07T08:54:42;-29.42;62.68
72762;SHT30;60886;55.034;73.150;2023-12-07T08:57:43;-29.47;62.59
72762;SHT30;60886;55.034;73.150;2023-12-07T09:00:45;-29.68;62.71
72762;SHT30;60886;55.034;73.150;2023-12-07T09:03:46;-29.78;62.68
72762;SHT30;60886;55.034;73.150;2023-12-07T09:06:48;-29.71;63.11
72762;SHT30;60886;55.034;73.150;2023-12-07T09:09:51;-29.71;63.12
72762;SHT30;60886;55.034;73.150;2023-12-07T09:12:52;-29.76;63.24
72762;SHT30;60886;55.034;73.150;2023-12-07T09:15:54;-29.78;63.35
72762;SHT30;60886;55.034;73.150;2023-12-07T09:18:55;-29.78;63.63
72762;SHT30;60886;55.034;73.150;2023-12-07T09:21:57;-29.88;63.68
72762;SHT30;60886;55.034;73.150;2023-12-07T09:25:00;-29.97;63.75
72762;SHT30;60886;55.034;73.150;2023-12-07T09:28:01;-30.04;63.74
72762;SHT30;60886;55.034;73.150;2023-12-07T09:31:05;-29.93;64.03
72762;SHT30;60886;55.034;73.150;2023-12-07T09:34:09;-30.00;64.12
72762;SHT30;60886;55.034;73.150;2023-12-07T09:37:11;-30.03;64.08
72762;SHT30;60886;55.034;73.150;2023-12-07T09:40:17;-30.07;64.22
72762;SHT30;60886;55.034;73.150;2023-12-07T09:43:19;-29.97;64.25
72762;SHT30;60886;55.034;73.150;2023-12-07T09:46:20;-29.94;64.53
72762;SHT30;60886;55.034;73.150;2023-12-07T09:49:22;-30.03;64.42
72762;SHT30;60886;55.034;73.150;2023-12-07T09:52:33;-30.07;64.34
72762;SHT30;60886;55.034;73.150;2023-12-07T09:55:35;-30.06;64.27
72762;SHT30;60886;55.034;73.150;2023-12-07T09:58:39;-30.16;64.17
72762;SHT30;60886;55.034;73.150;2023-12-07T10:01:41;-30.20;64.10
72762;SHT30;60886;55.034;73.150;2023-12-07T10:04:43;-30.12;64.20
72762;SHT30;60886;55.034;73.150;2023-12-07T10:07:46;-30.17;64.17
72762;SHT30;60886;55.034;73.150;2023-12-07T10:11:08;-30.20;64.16
72762;SHT30;60886;55.034;73.150;2023-12-07T10:14:10;-30.24;64.34
72762;SHT30;60886;55.034;73.150;2023-12-07T10:17:11;-30.27;64.36
72762;SHT30;60886;55.034;73.150;2023-12-07T10:20:23;-30.37;64.50
72762;SHT30;60886;55.034;73.150;2023-12-07T10:23:26;-30.26;64.71
72762;SHT30;60886;55.034;73.150;2023-12-07T10:26:30;-30.43;64.68
72762;SHT30;60886;55.034;73.150;2023-12-07T10:29:35;-30.33;64.84
72762;SHT30;60886;55.034;73.150;2023-12-07T10:32:38;-30.45;64.86
72762;SHT30;60886;55.034;73.150;2023-12-07T10:35:40;-30.54;64.87
72762;SHT30;60886;55.034;73.150;2023-12-07T10:38:42;-30.62;64.93
72762;SHT30;60886;55.034;73.150;2023-12-07T10:41:47;-30.73;65.03
72762;SHT30;60886;55.034;73.150;2023-12-07T10:44:53;-30.75;65.31
72762;SHT30;60886;55.034;73.150;2023-12-07T10:48:08;-30.82;65.72
72762;SHT30;60886;55.034;73.150;2023-12-07T10:51:17;-30.89;65.98
72762;SHT30;60886;55.034;73.150;2023-12-07T10:54:22;-31.00;66.24
72762;SHT30;60886;55.034;73.150;2023-12-07T10:57:25;-30.91;66.60
72762;SHT30;60886;55.034;73.150;2023-12-07T11:00:27;-31.03;66.36
72762;SHT30;60886;55.034;73.150;2023-12-07T11:03:30;-31.04;66.17
72762;SHT30;60886;55.034;73.150;2023-12-07T11:06:34;-31.07;66.28
72762;SHT30;60886;55.034;73.150;2023-12-07T11:09:41;-31.10;66.24
72762;SHT30;60886;55.034;73.150;2023-12-07T11:12:49;-31.12;66.17
72762;SHT30;60886;55.034;73.150;2023-12-07T11:15:52;-31.10;66.14
72762;SHT30;60886;55.034;73.150;2023-12-07T11:18:54;-30.85;66.32
72762;SHT30;60886;55.034;73.150;2023-12-07T11:21:56;-30.75;66.21
72762;SHT30;60886;55.034;73.150;2023-12-07T11:24:57;-30.81;65.85
72762;SHT30;60886;55.034;73.150;2023-12-07T11:28:05;-30.82;65.44
72762;SHT30;60886;55.034;73.150;2023-12-07T11:31:07;-30.82;65.22
72762;SHT30;60886;55.034;73.150;2023-12-07T11:34:10;-30.81;65.29
72762;SHT30;60886;55.034;73.150;2023-12-07T11:37:16;-30.89;65.09
72762;SHT30;60886;55.034;73.150;2023-12-07T11:40:20;-30.93;65.08
72762;SHT30;60886;55.034;73.150;2023-12-07T11:46:39;-31.04;65.30
72762;SHT30;60886;55.034;73.150;2023-12-07T11:49:40;-30.98;65.47
72762;SHT30;60886;55.034;73.150;2023-12-07T11:52:42;-31.03;65.47
72762;SHT30;60886;55.034;73.150;2023-12-07T11:55:44;-31.02;65.41
72762;SHT30;60886;55.034;73.150;2023-12-07T11:58:46;-31.12;65.29
72762;SHT30;60886;55.034;73.150;2023-12-07T12:01:48;-31.09;65.20
72762;SHT30;60886;55.034;73.150;2023-12-07T12:04:50;-31.16;65.26
72762;SHT30;60886;55.034;73.150;2023-12-07T12:07:52;-31.19;65.10
72762;SHT30;60886;55.034;73.150;2023-12-07T12:10:54;-31.14;65.22
72762;SHT30;60886;55.034;73.150;2023-12-07T12:13:59;-31.17;65.12
72762;SHT30;60886;55.034;73.150;2023-12-07T12:17:17;-31.20;65.08
72762;SHT30;60886;55.034;73.150;2023-12-07T12:20:19;-31.14;65.15
72762;SHT30;60886;55.034;73.150;2023-12-07T12:23:22;-31.17;64.95
72762;SHT30;60886;55.034;73.150;2023-12-07T12:26:37;-31.19;64.90
72762;SHT30;60886;55.034;73.150;2023-12-07T12:29:44;-31.23;64.73
72762;SHT30;60886;55.034;73.150;2023-12-07T12:32:47;-31.34;64.52
72762;SHT30;60886;55.034;73.150;2023-12-07T12:36:02;-31.38;64.73
72762;SHT30;60886;55.034;73.150;2023-12-07T12:39:04;-31.40;64.86
72762;SHT30;60886;55.034;73.150;2023-12-07T12:42:20;-31.27;65.08
72762;SHT30;60886;55.034;73.150;2023-12-07T12:45:22;-31.30;65.07
72762;SHT30;60886;55.034;73.150;2023-12-07T12:48:24;-31.34;64.87
72762;SHT30;60886;55.034;73.150;2023-12-07T12:51:27;-31.34;64.83
72762;SHT30;60886;55.034;73.150;2023-12-07T12:54:31;-31.43;64.75
72762;SHT30;60886;55.034;73.150;2023-12-07T12:57:37;-31.48;64.75
72762;SHT30;60886;55.034;73.150;2023-12-07T13:00:39;-31.46;64.94
72762;SHT30;60886;55.034;73.150;2023-12-07T13:03:42;-31.55;64.95
72762;SHT30;60886;55.034;73.150;2023-12-07T13:06:44;-31.59;64.98
72762;SHT30;60886;55.034;73.150;2023-12-07T13:09:46;-31.65;65.04
72762;SHT30;60886;55.034;73.150;2023-12-07T13:12:47;-31.62;65.11
72762;SHT30;60886;55.034;73.150;2023-12-07T13:15:59;-31.76;65.23
72762;SHT30;60886;55.034;73.150;2023-12-07T13:19:01;-31.78;65.31
72762;SHT30;60886;55.034;73.150;2023-12-07T13:22:07;-31.86;65.49
72762;SHT30;60886;55.034;73.150;2023-12-07T13:25:26;-31.86;65.70
72762;SHT30;60886;55.034;73.150;2023-12-07T13:28:42;-31.97;65.85
72762;SHT30;60886;55.034;73.150;2023-12-07T13:31:43;-32.06;66.11
72762;SHT30;60886;55.034;73.150;2023-12-07T13:34:46;-32.03;66.29
72762;SHT30;60886;55.034;73.150;2023-12-07T13:38:06;-32.10;66.51
72762;SHT30;60886;55.034;73.150;2023-12-07T13:41:07;-32.13;66.60
72762;SHT30;60886;55.034;73.150;2023-12-07T13:44:12;-32.30;66.61
72762;SHT30;60886;55.034;73.150;2023-12-07T13:47:17;-32.27;66.75
72762;SHT30;60886;55.034;73.150;2023-12-07T13:50:19;-32.16;66.92
72762;SHT30;60886;55.034;73.150;2023-12-07T13:53:20;-32.20;66.93
72762;SHT30;60886;55.034;73.150;2023-12-07T13:56:23;-32.26;66.69
72762;SHT30;60886;55.034;73.150;2023-12-07T13:59:25;-32.26;66.63
72762;SHT30;60886;55.034;73.150;2023-12-07T14:02:27;-32.12;66.77
72762;SHT30;60886;55.034;73.150;2023-12-07T14:05:30;-32.12;66.67
72762;SHT30;60886;55.034;73.150;2023-12-07T14:08:31;-32.12;66.45
72762;SHT30;60886;55.034;73.150;2023-12-07T14:11:33;-32.27;66.15
72762;SHT30;60886;55.034;73.150;2023-12-07T14:14:35;-32.37;66.14
72762;SHT30;60886;55.034;73.150;2023-12-07T14:17:36;-32.36;66.40
72762;SHT30;60886;55.034;73.150;2023-12-07T14:20:41;-32.49;66.61
72762;SHT30;60886;55.034;73.150;2023-12-07T14:23:46;-32.47;66.84
72762;SHT30;60886;55.034;73.150;2023-12-07T14:26:48;-32.61;66.92
72762;SHT30;60886;55.034;73.150;2023-12-07T14:29:51;-32.67;66.99
72762;SHT30;60886;55.034;73.150;2023-12-07T14:32:53;-32.68;67.35
72762;SHT30;60886;55.034;73.150;2023-12-07T14:36:35;-32.76;67.41
72762;SHT30;60886;55.034;73.150;2023-12-07T14:39:45;-32.74;67.54
72762;SHT30;60886;55.034;73.150;2023-12-07T14:42:47;-32.72;67.70
72762;SHT30;60886;55.034;73.150;2023-12-07T14:45:50;-32.78;67.74
72762;SHT30;60886;55.034;73.150;2023-12-07T14:48:56;-32.74;67.67
72762;SHT30;60886;55.034;73.150;2023-12-07T14:52:07;-32.64;67.85
72762;SHT30;60886;55.034;73.150;2023-12-07T14:55:09;-32.65;67.81
72762;SHT30;60886;55.034;73.150;2023-12-07T14:58:10;-32.51;67.56
72762;SHT30;60886;55.034;73.150;2023-12-07T15:01:12;-32.71;67.27
72762;SHT30;60886;55.034;73.150;2023-12-07T15:04:13;-32.75;67.10
72762;SHT30;60886;55.034;73.150;2023-12-07T15:07:15;-32.71;67.19
72762;SHT30;60886;55.034;73.150;2023-12-07T15:10:18;-32.78;67.25
72762;SHT30;60886;55.034;73.150;2023-12-07T15:13:20;-32.78;67.26
72762;SHT30;60886;55.034;73.150;2023-12-07T15:16:21;-32.76;67.31
72762;SHT30;60886;55.034;73.150;2023-12-07T15:19:23;-32.76;67.28
72762;SHT30;60886;55.034;73.150;2023-12-07T15:22:25;-32.81;67.34
72762;SHT30;60886;55.034;73.150;2023-12-07T15:25:27;-32.74;67.40
72762;SHT30;60886;55.034;73.150;2023-12-07T15:28:28;-32.75;67.26
72762;SHT30;60886;55.034;73.150;2023-12-07T15:31:30;-32.86;67.26
72762;SHT30;60886;55.034;73.150;2023-12-07T15:34:32;-32.86;67.06
72762;SHT30;60886;55.034;73.150;2023-12-07T15:37:34;-32.81;67.23
72762;SHT30;60886;55.034;73.150;2023-12-07T15:40:36;-32.88;67.23
72762;SHT30;60886;55.034;73.150;2023-12-07T15:43:38;-32.91;67.33
72762;SHT30;60886;55.034;73.150;2023-12-07T15:46:40;-32.85;67.45
72762;SHT30;60886;55.034;73.150;2023-12-07T15:49:41;-32.82;67.34
72762;SHT30;60886;55.034;73.150;2023-12-07T15:52:43;-32.93;67.38
72762;SHT30;60886;55.034;73.150;2023-12-07T15:55:46;-32.89;67.27
72762;SHT30;60886;55.034;73.150;2023-12-07T15:58:48;-32.93;67.31
72762;SHT30;60886;55.034;73.150;2023-12-07T16:01:52;-32.96;67.31
72762;SHT30;60886;55.034;73.150;2023-12-07T16:04:54;-32.89;67.35
72762;SHT30;60886;55.034;73.150;2023-12-07T16:07:57;-33.02;67.42
72762;SHT30;60886;55.034;73.150;2023-12-07T16:10:59;-32.98;67.42
72762;SHT30;60886;55.034;73.150;2023-12-07T16:14:00;-33.00;67.49
72762;SHT30;60886;55.034;73.150;2023-12-07T16:17:07;-32.99;67.55
72762;SHT30;60886;55.034;73.150;2023-12-07T16:20:09;-33.14;67.46
72762;SHT30;60886;55.034;73.150;2023-12-07T16:23:16;-33.26;67.45
72762;SHT30;60886;55.034;73.150;2023-12-07T16:26:18;-33.19;67.66
72762;SHT30;60886;55.034;73.150;2023-12-07T16:29:20;-33.13;67.92
72762;SHT30;60886;55.034;73.150;2023-12-07T16:32:22;-33.20;68.09
72762;SHT30;60886;55.034;73.150;2023-12-07T16:35:24;-33.09;67.98
72762;SHT30;60886;55.034;73.150;2023-12-07T16:38:26;-33.07;68.08
72762;SHT30;60886;55.034;73.150;2023-12-07T16:41:30;-33.03;67.84
72762;SHT30;60886;55.034;73.150;2023-12-07T16:44:33;-32.96;67.78
72762;SHT30;60886;55.034;73.150;2023-12-07T16:47:35;-33.04;67.52
72762;SHT30;60886;55.034;73.150;2023-12-07T16:50:37;-33.07;67.24
72762;SHT30;60886;55.034;73.150;2023-12-07T16:53:38;-32.95;67.28
72762;SHT30;60886;55.034;73.150;2023-12-07T16:56:41;-32.91;67.37
72762;SHT30;60886;55.034;73.150;2023-12-07T16:59:43;-33.00;67.20
72762;SHT30;60886;55.034;73.150;2023-12-07T17:02:45;-32.96;67.10
72762;SHT30;60886;55.034;73.150;2023-12-07T17:05:47;-32.93;67.10
72762;SHT30;60886;55.034;73.150;2023-12-07T17:08:50;-32.96;67.19
72762;SHT30;60886;55.034;73.150;2023-12-07T17:11:55;-32.91;67.06
72762;SHT30;60886;55.034;73.150;2023-12-07T17:14:57;-32.83;66.98
72762;SHT30;60886;55.034;73.150;2023-12-07T17:17:59;-32.92;66.78
72762;SHT30;60886;55.034;73.150;2023-12-07T17:21:04;-32.83;66.66
72762;SHT30;60886;55.034;73.150;2023-12-07T17:24:06;-32.91;66.55
72762;SHT30;60886;55.034;73.150;2023-12-07T17:27:09;-32.89;66.47
72762;SHT30;60886;55.034;73.150;2023-12-07T17:30:11;-32.85;66.44
72762;SHT30;60886;55.034;73.150;2023-12-07T17:33:13;-32.92;66.42
72762;SHT30;60886;55.034;73.150;2023-12-07T17:36:14;-32.85;66.56
72762;SHT30;60886;55.034;73.150;2023-12-07T17:39:17;-32.82;66.63
72762;SHT30;60886;55.034;73.150;2023-12-07T17:42:20;-32.85;66.70
72762;SHT30;60886;55.034;73.150;2023-12-07T17:45:23;-32.85;66.55
72762;SHT30;60886;55.034;73.150;2023-12-07T17:48:24;-32.92;66.53
72762;SHT30;60886;55.034;73.150;2023-12-07T17:51:26;-32.93;66.53
72762;SHT30;60886;55.034;73.150;2023-12-07T17:54:28;-32.95;66.57
72762;SHT30;60886;55.034;73.150;2023-12-07T17:57:30;-33.03;66.50
72762;SHT30;60886;55.034;73.150;2023-12-07T18:00:31;-32.99;66.53
72762;SHT30;60886;55.034;73.150;2023-12-07T18:03:33;-33.04;66.45
72762;SHT30;60886;55.034;73.150;2023-12-07T18:06:41;-33.10;66.46
72762;SHT30;60886;55.034;73.150;2023-12-07T18:09:46;-33.10;66.22
72762;SHT30;60886;55.034;73.150;2023-12-07T18:12:49;-33.14;66.28
72762;SHT30;60886;55.034;73.150;2023-12-07T18:15:51;-33.10;66.40
72762;SHT30;60886;55.034;73.150;2023-12-07T18:18:53;-33.26;66.14
72762;SHT30;60886;55.034;73.150;2023-12-07T18:21:54;-33.20;66.07
72762;SHT30;60886;55.034;73.150;2023-12-07T18:24:57;-33.20;66.21
72762;SHT30;60886;55.034;73.150;2023-12-07T18:27:58;-33.24;66.26
72762;SHT30;60886;55.034;73.150;2023-12-07T18:31:00;-33.24;66.11
72762;SHT30;60886;55.034;73.150;2023-12-07T18:34:02;-33.22;66.29
72762;SHT30;60886;55.034;73.150;2023-12-07T18:37:07;-33.24;66.26
72762;SHT30;60886;55.034;73.150;2023-12-07T18:40:10;-33.23;66.16
72762;SHT30;60886;55.034;73.150;2023-12-07T18:43:12;-33.24;66.20
72762;SHT30;60886;55.034;73.150;2023-12-07T18:46:14;-33.30;66.15
72762;SHT30;60886;55.034;73.150;2023-12-07T18:49:17;-33.26;66.16
72762;SHT30;60886;55.034;73.150;2023-12-07T18:52:19;-33.34;65.97
72762;SHT30;60886;55.034;73.150;2023-12-07T18:55:22;-33.31;65.86
72762;SHT30;60886;55.034;73.150;2023-12-07T18:58:23;-33.41;65.91
72762;SHT30;60886;55.034;73.150;2023-12-07T19:01:33;-33.43;65.73
72762;SHT30;60886;55.034;73.150;2023-12-07T19:04:35;-33.30;65.98
72762;SHT30;60886;55.034;73.150;2023-12-07T19:07:37;-33.37;65.97
72762;SHT30;60886;55.034;73.150;2023-12-07T19:10:42;-33.37;65.69
72762;SHT30;60886;55.034;73.150;2023-12-07T19:13:43;-33.46;65.68
72762;SHT30;60886;55.034;73.150;2023-12-07T19:16:45;-33.47;65.59
72762;SHT30;60886;55.034;73.150;2023-12-07T19:19:47;-33.50;65.70
72762;SHT30;60886;55.034;73.150;2023-12-07T19:22:50;-33.59;65.71
72762;SHT30;60886;55.034;73.150;2023-12-07T19:25:53;-33.61;66.00
72762;SHT30;60886;55.034;73.150;2023-12-07T19:28:55;-33.57;66.09
72762;SHT30;60886;55.034;73.150;2023-12-07T19:31:56;-33.69;66.16
72762;SHT30;60886;55.034;73.150;2023-12-07T19:34:58;-33.71;66.12
72762;SHT30;60886;55.034;73.150;2023-12-07T19:37:59;-33.68;66.21
72762;SHT30;60886;55.034;73.150;2023-12-07T19:41:04;-33.65;66.34
72762;SHT30;60886;55.034;73.150;2023-12-07T19:44:06;-33.72;66.27
72762;SHT30;60886;55.034;73.150;2023-12-07T19:47:08;-33.67;66.21
72762;SHT30;60886;55.034;73.150;2023-12-07T19:50:10;-33.74;66.08
72762;SHT30;60886;55.034;73.150;2023-12-07T19:53:12;-33.68;66.03
72762;SHT30;60886;55.034;73.150;2023-12-07T19:56:13;-33.65;66.05
72762;SHT30;60886;55.034;73.150;2023-12-07T19:59:15;-33.74;65.91
72762;SHT30;60886;55.034;73.150;2023-12-07T20:02:17;-33.65;65.85
72762;SHT30;60886;55.034;73.150;2023-12-07T20:05:18;-33.64;65.77
72762;SHT30;60886;55.034;73.150;2023-12-07T20:08:20;-33.69;65.62
72762;SHT30;60886;55.034;73.150;2023-12-07T20:11:22;-33.68;65.43
72762;SHT30;60886;55.034;73.150;2023-12-07T20:14:23;-33.74;65.43
72762;SHT30;60886;55.034;73.150;2023-12-07T20:17:25;-33.75;65.44
72762;SHT30;60886;55.034;73.150;2023-12-07T20:20:27;-33.77;65.52
72762;SHT30;60886;55.034;73.150;2023-12-07T20:23:28;-33.79;65.66
72762;SHT30;60886;55.034;73.150;2023-12-07T20:26:30;-33.72;65.87
72762;SHT30;60886;55.034;73.150;2023-12-07T20:29:32;-33.71;66.16
72762;SHT30;60886;55.034;73.150;2023-12-07T20:32:34;-33.69;66.24
72762;SHT30;60886;55.034;73.150;2023-12-07T20:35:36;-33.72;66.21
72762;SHT30;60886;55.034;73.150;2023-12-07T20:38:39;-33.81;66.18